Time;durP1;ratioP1;P1;durP2;ratioP2;P2;SDS_P1;SDS_P2;PMS_P1;PMS_P2;Temp;Humidity;BMP_temperature;BMP_pressure;BME280_temperature;BME280_humidity;BME280_pressure;Samples;Min_cycle;Max_cycle;Signal;HPM_P1;HPM_P2
2023/04/19 00:05:01;;;;;;;1.70;0.80;;;;;;;6.41;60.06;102294.22;15473369;28;20526;-50
2023/04/19 00:12:35;;;;;;;1.63;0.93;;;;;;;6.58;59.72;102282.81;15500982;28;20066;-50
2023/04/19 00:20:11;;;;;;;1.60;0.77;;;;;;;6.42;58.18;102279.06;15482112;28;20137;-51
2023/04/19 00:27:46;;;;;;;1.00;0.47;;;;;;;6.53;57.12;102273.56;15469459;28;20555;-54
2023/04/19 00:35:21;;;;;;;0.30;0.30;;;;;;;6.36;56.97;102270.66;15483572;28;20461;-52
2023/04/19 00:42:55;;;;;;;1.55;0.80;;;;;;;6.35;55.54;102262.81;15491046;28;20057;-53
2023/04/19 00:50:28;;;;;;;1.15;0.43;;;;;;;6.38;55.31;102262.50;15495939;28;20054;-50
2023/04/19 00:58:05;;;;;;;2.20;0.90;;;;;;;6.35;53.33;102270.81;15491626;28;20278;-51
2023/04/19 01:05:39;;;;;;;1.85;0.98;;;;;;;6.36;53.40;102262.66;15503549;28;20069;-52
2023/04/19 01:13:14;;;;;;;1.10;0.73;;;;;;;6.60;52.38;102259.47;15483035;28;20082;-49
2023/04/19 01:20:46;;;;;;;0.73;0.60;;;;;;;6.32;52.54;102255.94;15509779;23;20046;-48
2023/04/19 01:28:21;;;;;;;1.37;0.43;;;;;;;6.11;52.80;102256.13;15484793;28;20046;-47
2023/04/19 01:35:56;;;;;;;2.50;0.75;;;;;;;5.99;51.64;102259.94;15423959;28;20571;-49
2023/04/19 01:43:30;;;;;;;1.10;0.47;;;;;;;6.10;51.50;102261.59;15398147;28;20039;-47
2023/04/19 01:51:03;;;;;;;0.30;0.30;;;;;;;5.93;52.34;102257.03;15434072;28;20134;-48
2023/04/19 01:58:37;;;;;;;0.50;0.50;;;;;;;5.79;52.94;102250.28;15420736;28;20491;-50
2023/04/19 02:06:11;;;;;;;0.30;0.22;;;;;;;5.51;53.36;102247.47;15406874;28;20345;-49
2023/04/19 02:13:46;;;;;;;1.45;0.43;;;;;;;5.62;53.47;102241.16;15403695;28;20479;-46
2023/04/19 02:21:19;;;;;;;1.42;0.40;;;;;;;5.58;53.91;102242.41;15392989;28;20488;-49
2023/04/19 02:28:54;;;;;;;0.35;0.35;;;;;;;5.27;54.65;102239.91;15376486;28;20062;-50
2023/04/19 02:36:27;;;;;;;1.20;0.43;;;;;;;5.12;55.88;102236.78;15412686;28;20127;-48
2023/04/19 02:44:02;;;;;;;2.13;1.02;;;;;;;4.99;56.17;102232.69;15426639;28;20038;-45
2023/04/19 02:51:35;;;;;;;0.55;0.35;;;;;;;4.78;57.14;102220.31;15417479;28;20452;-47
2023/04/19 02:59:31;;;;;;;0.10;0.10;;;;;;;4.73;57.39;102219.88;15376412;28;20063;-48
2023/04/19 03:07:06;;;;;;;0.30;0.30;;;;;;;4.95;57.14;102216.16;15444764;28;20043;-47
2023/04/19 03:14:44;;;;;;;6.22;1.33;;;;;;;4.85;57.63;102208.19;15430411;28;20070;-48
2023/04/19 03:22:19;;;;;;;1.35;1.10;;;;;;;4.85;57.80;102197.53;15429977;28;20146;-52
2023/04/19 03:29:58;;;;;;;0.75;0.52;;;;;;;4.68;58.93;102194.69;15415364;28;20074;-52
2023/04/19 03:37:36;;;;;;;0.52;0.52;;;;;;;4.50;59.89;102197.13;15430860;28;20039;-47
2023/04/19 03:45:12;;;;;;;3.08;0.75;;;;;;;4.50;60.40;102187.34;15443408;28;20043;-46
2023/04/19 03:52:51;;;;;;;1.00;0.60;;;;;;;4.32;61.30;102183.63;15414507;28;20047;-49
2023/04/19 04:00:27;;;;;;;0.47;0.47;;;;;;;4.15;62.08;102187.78;15414041;28;20492;-49
2023/04/19 04:08:05;;;;;;;0.73;0.52;;;;;;;4.22;62.28;102180.09;15404109;28;20298;-51
2023/04/19 04:15:47;;;;;;;;;;;;;;;3.98;64.27;102188.38;15400535;28;20574;-48
2023/04/19 04:23:24;;;;;;;0.30;0.30;;;;;;;3.87;64.52;102188.44;15423820;28;20117;-50
2023/04/19 04:31:00;;;;;;;1.60;0.15;;;;;;;3.91;65.24;102188.03;15427550;28;20130;-48
2023/04/19 04:38:37;;;;;;;1.85;0.45;;;;;;;3.91;65.54;102173.94;15426289;28;20055;-49
2023/04/19 04:46:13;;;;;;;1.02;0.13;;;;;;;4.43;64.26;102175.59;15442519;28;20117;-51
2023/04/19 04:53:48;;;;;;;0.50;0.43;;;;;;;4.27;65.26;102176.06;15426259;28;20105;-52
2023/04/19 05:01:23;;;;;;;0.30;0.30;;;;;;;4.41;66.20;102158.91;15410219;28;20066;-45
2023/04/19 05:08:56;;;;;;;0.52;0.43;;;;;;;4.49;66.01;102166.22;15442095;28;20073;-45
2023/04/19 05:16:48;;;;;;;0.50;0.50;;;;;;;4.61;65.88;102157.13;15441008;28;20039;-48
2023/04/19 05:24:21;;;;;;;0.65;0.35;;;;;;;5.07;64.92;102156.50;15408579;28;20416;-46
2023/04/19 05:31:57;;;;;;;0.73;0.73;;;;;;;5.75;63.17;102148.47;15426303;28;20098;-51
2023/04/19 05:39:42;;;;;;;0.15;0.15;;;;;;;6.03;61.69;102140.56;15428453;28;20143;-49
2023/04/19 05:47:17;;;;;;;0.28;0.28;;;;;;;6.32;60.62;102121.75;15424773;28;20043;-46
2023/04/19 05:55:08;;;;;;;0.10;0.05;;;;;;;6.44;60.02;102123.25;15425973;28;20038;-49
2023/04/19 06:02:51;;;;;;;0.30;0.30;;;;;;;7.07;58.24;102117.03;15440713;28;20054;-46
2023/04/19 06:10:24;;;;;;;0.08;0.08;;;;;;;7.60;57.23;102119.66;15412849;28;20396;-47
2023/04/19 06:17:59;;;;;;;1.08;0.45;;;;;;;8.32;55.46;102114.81;15419703;28;20055;-48
2023/04/19 06:25:32;;;;;;;0.43;0.40;;;;;;;9.00;53.78;102116.53;15436115;28;20545;-52
2023/04/19 06:33:07;;;;;;;0.47;0.43;;;;;;;10.42;50.01;102107.88;15425440;28;20035;-49
2023/04/19 06:40:40;;;;;;;1.42;0.43;;;;;;;9.77;50.14;102103.56;15433790;28;20078;-45
2023/04/19 06:48:14;;;;;;;0.73;0.23;;;;;;;9.24;50.23;102090.75;15432888;28;20039;-46
2023/04/19 06:55:47;;;;;;;0.88;0.25;;;;;;;9.55;49.49;102090.88;15434487;28;20043;-47
2023/04/19 07:03:22;;;;;;;1.25;0.65;;;;;;;9.63;48.79;102070.25;15433295;28;20039;-51
2023/04/19 07:10:55;;;;;;;0.60;0.40;;;;;;;11.95;43.61;102060.25;15431928;28;20484;-50
2023/04/19 07:18:29;;;;;;;0.85;0.35;;;;;;;12.47;43.41;102051.97;15415397;28;20586;-48
2023/04/19 07:26:02;;;;;;;0.28;0.28;;;;;;;12.65;41.84;102045.31;15513308;23;20054;-52
2023/04/19 07:33:37;;;;;;;;;;;;;;;13.97;38.77;102037.38;15512517;28;20073;-53
2023/04/19 07:41:10;;;;;;;4.97;0.65;;;;;;;15.40;37.52;102021.81;15508958;28;19980;-49
2023/04/19 07:48:45;;;;;;;0.13;0.13;;;;;;;13.87;39.55;102020.72;15495136;28;20039;-47
2023/04/19 07:56:18;;;;;;;0.38;0.35;;;;;;;13.60;39.50;102014.34;15504130;28;20045;-54
2023/04/19 08:03:53;;;;;;;0.28;0.20;;;;;;;13.50;37.70;102002.06;15495170;28;20048;-49
2023/04/19 08:11:26;;;;;;;0.05;0.05;;;;;;;14.35;38.87;101997.19;15494666;28;20070;-48
2023/04/19 08:19:00;;;;;;;0.77;0.40;;;;;;;13.35;38.01;102001.34;15508979;28;20038;-51
2023/04/19 08:26:34;;;;;;;1.23;0.40;;;;;;;15.40;36.53;101979.34;15492361;28;20102;-53
2023/04/19 08:34:08;;;;;;;;;;;;;;;14.07;36.06;101970.31;15491874;28;20054;-51
2023/04/19 08:41:41;;;;;;;1.15;0.50;;;;;;;14.77;34.92;101965.47;15491014;28;19922;-50
2023/04/19 08:49:18;;;;;;;6.03;0.50;;;;;;;14.58;35.28;101963.59;15490967;28;20054;-52
2023/04/19 08:56:52;;;;;;;1.48;0.40;;;;;;;14.28;35.75;101962.09;15505390;28;20495;-48
2023/04/19 09:04:27;;;;;;;1.65;0.65;;;;;;;13.37;37.84;101939.94;15491582;28;20078;-51
2023/04/19 09:12:00;;;;;;;1.13;0.73;;;;;;;13.72;36.40;101938.03;15490826;28;20521;-51
2023/04/19 09:19:45;;;;;;;1.98;0.98;;;;;;;13.47;37.15;101939.56;15505444;28;20132;-47
2023/04/19 09:27:26;;;;;;;2.33;0.70;;;;;;;14.66;36.51;101907.50;15490026;28;20224;-54
2023/04/19 09:35:00;;;;;;;0.20;0.20;;;;;;;15.88;35.21;101902.38;15490199;28;20038;-50
2023/04/19 09:42:45;;;;;;;1.50;0.57;;;;;;;16.51;31.79;101891.50;15490359;28;20074;-49
2023/04/19 09:50:20;;;;;;;0.93;0.52;;;;;;;15.31;32.97;101885.94;15509629;28;20046;-51
2023/04/19 09:57:53;;;;;;;1.23;0.52;;;;;;;12.73;37.03;101889.78;15517460;28;20045;-49
2023/04/19 10:05:28;;;;;;;3.40;0.65;;;;;;;13.17;37.05;101891.28;15516684;28;20034;-51
2023/04/19 10:13:04;;;;;;;4.03;1.23;;;;;;;15.73;34.14;101860.16;15501416;28;20045;-52
2023/04/19 10:20:48;;;;;;;0.47;0.22;;;;;;;15.10;34.05;101851.88;15500529;28;20034;-51
2023/04/19 10:28:21;;;;;;;5.00;1.13;;;;;;;16.80;32.37;101846.63;15499850;28;20043;-52
2023/04/19 10:35:57;;;;;;;;;;;;;;;14.88;33.46;101843.22;15494715;28;20558;-50
2023/04/19 10:43:31;;;;;;;5.10;1.15;;;;;;;13.57;35.60;101836.69;15499383;28;20477;-48
2023/04/19 10:51:14;;;;;;;0.57;0.45;;;;;;;15.96;33.54;101810.03;15495501;28;20042;-51
2023/04/19 10:59:20;;;;;;;1.73;0.90;;;;;;;13.40;35.90;101820.06;15491592;28;20511;-47
2023/04/19 11:07:03;;;;;;;0.60;0.40;;;;;;;13.32;36.11;101826.44;15492987;28;20050;-49
2023/04/19 11:14:37;;;;;;;1.73;0.65;;;;;;;14.57;34.16;101821.44;15477977;28;20046;-48
2023/04/19 11:22:12;;;;;;;0.28;0.28;;;;;;;14.21;34.15;101801.06;15513201;28;20408;-48
2023/04/19 11:29:45;;;;;;;0.63;0.40;;;;;;;14.16;35.87;101809.81;15485684;28;20078;-48
2023/04/19 11:37:19;;;;;;;3.30;0.93;;;;;;;14.52;33.75;101795.06;15529013;28;20101;-49
2023/04/19 11:44:52;;;;;;;1.30;0.63;;;;;;;14.49;35.06;101790.06;15493300;28;20030;-47
2023/04/19 11:52:26;;;;;;;0.68;0.32;;;;;;;13.07;37.58;101731.78;15485667;28;20049;-50
2023/04/19 12:00:06;;;;;;;2.22;0.90;;;;;;;13.08;36.44;101784.66;15491663;28;20518;-50
2023/04/19 12:08:00;;;;;;;2.88;0.50;;;;;;;13.00;37.30;101782.13;15464110;28;20074;-49
2023/04/19 12:15:41;;;;;;;2.05;0.88;;;;;;;12.93;38.58;101770.50;15454096;28;20086;-50
2023/04/19 12:23:17;;;;;;;0.28;0.28;;;;;;;12.64;37.17;101767.03;15456146;28;20089;-50
2023/04/19 12:30:51;;;;;;;1.20;0.35;;;;;;;12.95;37.88;101746.84;15499786;28;20633;-48
2023/04/19 12:38:26;;;;;;;0.70;0.38;;;;;;;13.36;37.14;101743.28;15528163;28;20038;-52
2023/04/19 12:46:00;;;;;;;1.70;0.82;;;;;;;12.93;37.92;101757.03;15503887;28;20073;-53
2023/04/19 12:53:37;;;;;;;1.40;0.75;;;;;;;13.20;37.52;101744.47;15494863;28;20042;-49
2023/04/19 13:01:10;;;;;;;0.70;0.57;;;;;;;13.97;36.99;101718.84;15507114;28;20418;-49
2023/04/19 13:08:45;;;;;;;0.73;0.55;;;;;;;14.15;35.20;101705.53;15501986;28;20067;-49
2023/04/19 13:16:18;;;;;;;2.30;1.10;;;;;;;14.25;36.44;101702.41;15489762;28;20035;-47
2023/04/19 13:23:52;;;;;;;1.95;1.05;;;;;;;14.64;35.03;101701.50;15510068;23;20062;-53
2023/04/19 13:31:29;;;;;;;0.85;0.85;;;;;;;14.45;33.57;101676.16;15465537;28;20051;-53
2023/04/19 13:39:04;;;;;;;4.78;1.30;;;;;;;15.81;33.46;101667.72;15427232;28;20053;-53
2023/04/19 13:46:37;;;;;;;1.30;0.65;;;;;;;13.50;33.63;101656.78;15433910;28;20047;-52
2023/04/19 13:54:11;;;;;;;1.08;0.73;;;;;;;12.61;34.39;101646.22;15427927;28;20137;-53
2023/04/19 14:01:44;;;;;;;1.83;0.60;;;;;;;12.65;34.31;101650.19;15437804;28;20242;-51
2023/04/19 14:09:19;;;;;;;0.95;0.45;;;;;;;12.46;35.48;101657.13;15427932;28;20071;-51
2023/04/19 14:16:52;;;;;;;5.13;1.13;;;;;;;12.17;36.77;101642.09;15414171;28;20043;-51
2023/04/19 14:24:26;;;;;;;1.03;0.70;;;;;;;11.81;36.71;101641.41;15427840;28;20516;-54
2023/04/19 14:32:00;;;;;;;0.57;0.45;;;;;;;11.23;41.20;101658.47;15418373;28;20133;-52
2023/04/19 14:39:34;;;;;;;;;;;;;;;11.83;42.49;101631.31;15438366;28;20074;-54
2023/04/19 14:47:09;;;;;;;3.17;1.00;;;;;;;11.27;40.37;101634.75;15458215;28;19930;-55
2023/04/19 14:54:44;;;;;;;;;;;;;;;11.43;39.82;101620.22;15437586;28;20570;-51
2023/04/19 15:02:20;;;;;;;2.05;0.75;;;;;;;11.29;40.41;101605.03;15429048;28;19922;-52
2023/04/19 15:09:55;;;;;;;1.00;0.90;;;;;;;10.97;42.01;101608.03;15449882;28;20058;-52
2023/04/19 15:17:27;;;;;;;0.98;0.50;;;;;;;10.89;42.83;101600.09;15435503;28;20051;-51
2023/04/19 15:25:02;;;;;;;3.60;0.98;;;;;;;10.88;44.56;101613.72;15435764;28;20054;-53
2023/04/19 15:32:37;;;;;;;5.28;1.08;;;;;;;9.74;47.59;101621.28;15439690;28;20089;-52
2023/04/19 15:40:13;;;;;;;3.67;1.60;;;;;;;9.46;52.78;101634.44;15435611;28;20050;-51
2023/04/19 15:47:46;;;;;;;2.28;1.10;;;;;;;7.74;64.31;101674.59;15434355;28;20134;-53
2023/04/19 15:55:20;;;;;;;1.07;0.77;;;;;;;6.88;70.26;101683.84;15432916;28;20673;-51
2023/04/19 16:02:53;;;;;;;1.75;0.75;;;;;;;6.48;71.53;101695.22;15433445;28;20093;-51
2023/04/19 16:10:28;;;;;;;1.30;0.60;;;;;;;5.89;73.82;101689.69;15434689;28;20054;-52
2023/04/19 16:18:01;;;;;;;2.00;1.60;;;;;;;6.16;72.94;101677.22;15426826;28;20078;-51
2023/04/19 16:25:35;;;;;;;2.08;1.48;;;;;;;6.61;72.12;101676.09;15428199;28;20137;-51
2023/04/19 16:33:08;;;;;;;1.15;0.75;;;;;;;6.76;71.75;101679.81;15429898;28;20519;-52
2023/04/19 16:40:46;;;;;;;0.80;0.73;;;;;;;6.70;70.58;101659.09;15428356;28;20194;-52
2023/04/19 16:48:19;;;;;;;3.53;1.40;;;;;;;7.38;67.74;101653.56;15434744;28;20101;-52
2023/04/19 16:55:54;;;;;;;2.65;0.90;;;;;;;7.56;67.26;101645.38;15432443;28;20113;-52
2023/04/19 17:03:29;;;;;;;4.25;1.38;;;;;;;7.30;69.60;101642.03;15437919;28;20060;-50
2023/04/19 17:11:03;;;;;;;1.90;1.23;;;;;;;6.79;71.03;101631.44;15432929;28;20129;-49
2023/04/19 17:18:36;;;;;;;5.05;2.10;;;;;;;7.37;70.60;101624.34;15428303;28;20031;-50
2023/04/19 17:26:10;;;;;;;0.40;0.40;;;;;;;6.84;70.68;101625.63;15440348;28;20039;-50
2023/04/19 17:33:43;;;;;;;10.68;1.45;;;;;;;7.07;70.10;101623.16;15435188;28;20583;-50
2023/04/19 17:41:17;;;;;;;12.27;1.83;;;;;;;7.05;69.57;101587.81;15429449;28;20142;-51
2023/04/19 17:48:51;;;;;;;2.90;1.20;;;;;;;7.04;70.77;101624.34;15430059;28;20362;-49
2023/04/19 17:56:25;;;;;;;0.85;0.85;;;;;;;6.25;73.74;101632.75;15430091;28;20065;-50
2023/04/19 18:03:58;;;;;;;2.40;1.27;;;;;;;6.16;75.35;101639.91;15432101;28;20046;-50
2023/04/19 18:11:33;;;;;;;0.40;0.40;;;;;;;5.55;75.57;101630.19;15443358;28;20054;-51
2023/04/19 18:19:09;;;;;;;2.03;0.50;;;;;;;5.56;76.48;101643.34;15440556;28;20027;-51
2023/04/19 18:26:44;;;;;;;2.38;1.73;;;;;;;5.82;75.58;101643.34;15440190;28;20094;-49
2023/04/19 18:34:17;;;;;;;3.13;1.58;;;;;;;5.97;75.50;101637.44;15432505;28;20511;-50
2023/04/19 18:41:51;;;;;;;2.50;1.97;;;;;;;6.87;73.52;101633.31;15432698;28;20430;-53
2023/04/19 18:49:24;;;;;;;6.00;1.83;;;;;;;6.31;75.48;101622.31;15443250;28;20377;-53
2023/04/19 18:56:58;;;;;;;2.37;1.77;;;;;;;6.50;74.88;101631.88;15442789;28;20050;-53
2023/04/19 19:04:32;;;;;;;7.78;1.00;;;;;;;6.50;75.17;101625.72;15426767;28;20055;-53
2023/04/19 19:12:13;;;;;;;2.33;1.50;;;;;;;6.11;76.59;101631.56;15426148;28;20133;-52
2023/04/19 19:19:46;;;;;;;4.15;1.88;;;;;;;6.39;75.43;101632.19;15425323;28;20050;-54
2023/04/19 19:27:20;;;;;;;3.00;1.43;;;;;;;6.29;77.12;101634.13;15419605;28;20069;-51
2023/04/19 19:34:53;;;;;;;2.63;1.48;;;;;;;6.37;77.34;101636.81;15428534;28;20408;-53
2023/04/19 19:42:27;;;;;;;6.43;2.23;;;;;;;6.35;77.64;101642.31;15424608;28;20074;-49
2023/04/19 19:50:00;;;;;;;3.30;1.90;;;;;;;6.28;77.90;101643.13;15422129;28;20047;-52
2023/04/19 19:57:34;;;;;;;3.10;1.70;;;;;;;6.55;77.00;101642.91;15418535;28;20660;-53
2023/04/19 20:05:08;;;;;;;1.67;1.50;;;;;;;6.25;78.21;101654.94;15420819;28;20043;-51
2023/04/19 20:12:43;;;;;;;;;;;;;;;6.37;77.80;101648.31;15424752;28;20187;-53
2023/04/19 20:20:16;;;;;;;2.90;1.80;;;;;;;6.09;78.21;101650.34;15421568;28;19933;-53
2023/04/19 20:27:50;;;;;;;2.50;1.63;;;;;;;6.35;77.88;101658.31;15420165;28;20054;-52
2023/04/19 20:35:23;;;;;;;3.03;2.05;;;;;;;6.05;78.42;101661.50;15429880;28;20399;-50
2023/04/19 20:42:58;;;;;;;2.60;1.75;;;;;;;6.24;77.85;101647.94;15413480;28;20046;-52
2023/04/19 20:50:31;;;;;;;3.88;1.92;;;;;;;6.37;78.02;101642.16;15429059;28;20129;-51
2023/04/19 20:58:06;;;;;;;4.55;2.25;;;;;;;6.53;77.41;101644.06;15413097;28;20061;-54
2023/04/19 21:05:39;;;;;;;3.00;2.55;;;;;;;6.35;77.60;101639.66;15428376;28;20600;-53
2023/04/19 21:13:13;;;;;;;3.67;2.17;;;;;;;6.33;78.02;101640.81;15429822;28;20149;-54
2023/04/19 21:20:45;;;;;;;4.93;3.15;;;;;;;6.14;78.70;101645.38;15428911;28;20054;-55
2023/04/19 21:28:23;;;;;;;3.92;2.13;;;;;;;6.18;78.75;101650.41;15427871;28;20077;-51
2023/04/19 21:35:56;;;;;;;5.32;2.05;;;;;;;6.07;78.33;101648.88;15428839;28;20051;-54
2023/04/19 21:43:30;;;;;;;2.03;1.50;;;;;;;6.14;77.92;101653.38;15447510;28;20480;-53
2023/04/19 21:51:03;;;;;;;3.67;1.55;;;;;;;6.02;78.89;101656.50;15430438;28;20322;-50
2023/04/19 21:58:37;;;;;;;3.00;1.90;;;;;;;6.19;77.91;101660.91;15448011;28;20106;-52
2023/04/19 22:06:10;;;;;;;4.40;2.15;;;;;;;6.43;77.41;101662.84;15443387;28;20101;-52
2023/04/19 22:13:45;;;;;;;2.60;2.03;;;;;;;6.14;78.42;101661.38;15442723;28;20043;-50
2023/04/19 22:21:17;;;;;;;4.60;2.30;;;;;;;6.14;78.12;101664.03;15444602;28;20373;-53
2023/04/19 22:28:55;;;;;;;2.67;1.92;;;;;;;5.93;78.87;101670.75;15461773;28;20492;-52
2023/04/19 22:36:28;;;;;;;5.78;1.80;;;;;;;5.99;79.30;101657.63;15445929;28;20170;-50
2023/04/19 22:44:04;;;;;;;5.88;2.33;;;;;;;6.07;79.17;101644.38;15441944;28;20055;-51
2023/04/19 22:51:41;;;;;;;3.10;2.30;;;;;;;6.43;77.57;101638.84;15433427;28;20047;-50
2023/04/19 22:59:15;;;;;;;3.83;1.92;;;;;;;6.01;79.45;101650.31;15433620;28;20066;-51
2023/04/19 23:06:48;;;;;;;11.07;2.38;;;;;;;6.13;79.10;101642.88;15434498;28;20046;-50
2023/04/19 23:14:23;;;;;;;6.37;3.17;;;;;;;6.22;78.60;101631.28;15451304;28;20085;-51
2023/04/19 23:21:56;;;;;;;5.60;2.30;;;;;;;5.96;79.75;101647.28;15431931;28;20049;-54
2023/04/19 23:29:30;;;;;;;6.85;2.47;;;;;;;6.07;79.17;101636.38;15417504;28;20481;-49
2023/04/19 23:37:03;;;;;;;7.25;3.17;;;;;;;6.01;79.54;101630.81;15433687;28;20051;-49
2023/04/19 23:44:38;;;;;;;4.07;2.03;;;;;;;6.19;78.69;101623.59;15434020;28;20141;-51
2023/04/19 23:52:11;;;;;;;4.80;1.83;;;;;;;6.05;78.71;101624.19;15433469;28;20047;-51
2023/04/19 23:59:45;;;;;;;3.60;2.28;;;;;;;6.33;78.15;101604.31;15445168;28;20046;-51
